sensor_id;sensor_type;location;lat;lon;timestamp;P1;durP1;ratioP1;P2;durP2;ratioP2
22425;SDS011;11380;50.822;15.790;2022-07-19T00:03:27;54.13;;;49.53;;
22425;SDS011;11380;50.822;15.790;2022-07-19T00:08:32;53.37;;;48.63;;
22425;SDS011;11380;50.822;15.790;2022-07-19T00:13:39;53.63;;;49.08;;
22425;SDS011;11380;50.822;15.790;2022-07-19T00:18:44;52.77;;;48.27;;
22425;SDS011;11380;50.822;15.790;2022-07-19T00:23:50;52.63;;;48.13;;
22425;SDS011;11380;50.822;15.790;2022-07-19T00:28:55;52.40;;;47.93;;
22425;SDS011;11380;50.822;15.790;2022-07-19T00:34:01;52.47;;;48.00;;
22425;SDS011;11380;50.822;15.790;2022-07-19T00:39:06;52.67;;;48.23;;
22425;SDS011;11380;50.822;15.790;2022-07-19T00:44:12;51.47;;;47.23;;
22425;SDS011;11380;50.822;15.790;2022-07-19T00:49:17;52.67;;;48.23;;
22425;SDS011;11380;50.822;15.790;2022-07-19T00:54:23;52.40;;;48.07;;
22425;SDS011;11380;50.822;15.790;2022-07-19T00:59:30;52.80;;;48.10;;
22425;SDS011;11380;50.822;15.790;2022-07-19T01:04:38;52.83;;;48.43;;
22425;SDS011;11380;50.822;15.790;2022-07-19T01:09:43;53.03;;;48.50;;
22425;SDS011;11380;50.822;15.790;2022-07-19T01:14:49;52.77;;;48.27;;
22425;SDS011;11380;50.822;15.790;2022-07-19T01:19:56;52.67;;;48.17;;
22425;SDS011;11380;50.822;15.790;2022-07-19T01:25:03;53.07;;;48.57;;
22425;SDS011;11380;50.822;15.790;2022-07-19T01:30:15;52.43;;;48.03;;
22425;SDS011;11380;50.822;15.790;2022-07-19T01:35:22;53.20;;;48.50;;
22425;SDS011;11380;50.822;15.790;2022-07-19T01:40:28;51.80;;;47.48;;
22425;SDS011;11380;50.822;15.790;2022-07-19T01:45:33;52.13;;;47.73;;
22425;SDS011;11380;50.822;15.790;2022-07-19T01:50:40;52.63;;;48.13;;
22425;SDS011;11380;50.822;15.790;2022-07-19T01:55:46;52.07;;;47.73;;
22425;SDS011;11380;50.822;15.790;2022-07-19T02:00:52;52.30;;;47.80;;
22425;SDS011;11380;50.822;15.790;2022-07-19T02:05:57;52.07;;;47.67;;
22425;SDS011;11380;50.822;15.790;2022-07-19T02:11:03;52.13;;;47.80;;
22425;SDS011;11380;50.822;15.790;2022-07-19T02:16:10;51.87;;;47.33;;
22425;SDS011;11380;50.822;15.790;2022-07-19T02:21:16;51.03;;;46.63;;
22425;SDS011;11380;50.822;15.790;2022-07-19T02:31:26;51.55;;;47.35;;
22425;SDS011;11380;50.822;15.790;2022-07-19T02:36:31;51.47;;;47.27;;
22425;SDS011;11380;50.822;15.790;2022-07-19T02:41:37;50.73;;;46.63;;
22425;SDS011;11380;50.822;15.790;2022-07-19T02:46:42;51.20;;;47.03;;
22425;SDS011;11380;50.822;15.790;2022-07-19T02:51:48;51.40;;;47.20;;
22425;SDS011;11380;50.822;15.790;2022-07-19T02:56:54;51.33;;;47.13;;
22425;SDS011;11380;50.822;15.790;2022-07-19T03:01:59;50.92;;;46.73;;
22425;SDS011;11380;50.822;15.790;2022-07-19T03:07:06;51.02;;;46.95;;
22425;SDS011;11380;50.822;15.790;2022-07-19T03:12:11;51.33;;;47.13;;
22425;SDS011;11380;50.822;15.790;2022-07-19T03:17:16;51.00;;;46.87;;
22425;SDS011;11380;50.822;15.790;2022-07-19T03:22:22;50.37;;;46.37;;
22425;SDS011;11380;50.822;15.790;2022-07-19T03:27:27;50.60;;;46.53;;
22425;SDS011;11380;50.822;15.790;2022-07-19T03:32:32;50.33;;;46.30;;
22425;SDS011;11380;50.822;15.790;2022-07-19T03:37:38;50.50;;;46.40;;
22425;SDS011;11380;50.822;15.790;2022-07-19T03:42:43;50.17;;;46.17;;
22425;SDS011;11380;50.822;15.790;2022-07-19T03:47:48;50.27;;;46.20;;
22425;SDS011;11380;50.822;15.790;2022-07-19T03:52:53;50.67;;;46.57;;
22425;SDS011;11380;50.822;15.790;2022-07-19T03:57:59;50.83;;;46.73;;
22425;SDS011;11380;50.822;15.790;2022-07-19T04:03:05;51.30;;;46.80;;
22425;SDS011;11380;50.822;15.790;2022-07-19T04:08:12;51.58;;;47.08;;
22425;SDS011;11380;50.822;15.790;2022-07-19T04:13:18;51.10;;;46.92;;
22425;SDS011;11380;50.822;15.790;2022-07-19T04:18:24;51.75;;;47.45;;
22425;SDS011;11380;50.822;15.790;2022-07-19T04:23:29;51.40;;;47.20;;
22425;SDS011;11380;50.822;15.790;2022-07-19T04:28:36;52.27;;;47.67;;
22425;SDS011;11380;50.822;15.790;2022-07-19T04:33:41;53.37;;;48.60;;
22425;SDS011;11380;50.822;15.790;2022-07-19T04:38:46;52.70;;;48.10;;
22425;SDS011;11380;50.822;15.790;2022-07-19T04:43:51;52.60;;;48.10;;
22425;SDS011;11380;50.822;15.790;2022-07-19T04:48:57;51.90;;;47.47;;
22425;SDS011;11380;50.822;15.790;2022-07-19T04:54:03;53.02;;;48.33;;
22425;SDS011;11380;50.822;15.790;2022-07-19T04:59:09;52.53;;;47.83;;
22425;SDS011;11380;50.822;15.790;2022-07-19T05:04:14;52.90;;;48.23;;
22425;SDS011;11380;50.822;15.790;2022-07-19T05:09:20;53.42;;;48.55;;
22425;SDS011;11380;50.822;15.790;2022-07-19T05:14:25;53.97;;;48.97;;
22425;SDS011;11380;50.822;15.790;2022-07-19T05:19:31;53.27;;;48.57;;
22425;SDS011;11380;50.822;15.790;2022-07-19T05:24:38;54.00;;;49.03;;
22425;SDS011;11380;50.822;15.790;2022-07-19T05:29:43;54.73;;;49.83;;
22425;SDS011;11380;50.822;15.790;2022-07-19T05:34:49;54.00;;;49.10;;
22425;SDS011;11380;50.822;15.790;2022-07-19T05:39:54;54.00;;;49.10;;
22425;SDS011;11380;50.822;15.790;2022-07-19T05:45:00;54.63;;;49.73;;
22425;SDS011;11380;50.822;15.790;2022-07-19T05:50:07;55.60;;;50.20;;
22425;SDS011;11380;50.822;15.790;2022-07-19T05:55:12;55.20;;;50.15;;
22425;SDS011;11380;50.822;15.790;2022-07-19T06:00:18;55.33;;;49.83;;
22425;SDS011;11380;50.822;15.790;2022-07-19T06:10:28;54.97;;;49.77;;
22425;SDS011;11380;50.822;15.790;2022-07-19T06:15:36;55.63;;;50.33;;
22425;SDS011;11380;50.822;15.790;2022-07-19T06:20:41;55.97;;;50.67;;
22425;SDS011;11380;50.822;15.790;2022-07-19T06:25:46;56.43;;;51.23;;
22425;SDS011;11380;50.822;15.790;2022-07-19T06:30:51;56.57;;;51.40;;
22425;SDS011;11380;50.822;15.790;2022-07-19T06:35:58;55.95;;;50.75;;
22425;SDS011;11380;50.822;15.790;2022-07-19T06:41:03;56.10;;;50.70;;
22425;SDS011;11380;50.822;15.790;2022-07-19T06:46:10;55.57;;;50.47;;
22425;SDS011;11380;50.822;15.790;2022-07-19T06:56:20;56.20;;;50.80;;
22425;SDS011;11380;50.822;15.790;2022-07-19T07:01:25;56.63;;;51.33;;
22425;SDS011;11380;50.822;15.790;2022-07-19T07:06:32;63.50;;;56.90;;
22425;SDS011;11380;50.822;15.790;2022-07-19T07:11:38;57.93;;;52.33;;
22425;SDS011;11380;50.822;15.790;2022-07-19T07:21:48;57.43;;;51.90;;
22425;SDS011;11380;50.822;15.790;2022-07-19T07:31:59;57.15;;;51.75;;
22425;SDS011;11380;50.822;15.790;2022-07-19T07:37:04;57.35;;;51.90;;
22425;SDS011;11380;50.822;15.790;2022-07-19T07:42:11;57.50;;;52.00;;
22425;SDS011;11380;50.822;15.790;2022-07-19T07:47:18;57.43;;;52.00;;
22425;SDS011;11380;50.822;15.790;2022-07-19T07:52:23;57.55;;;52.00;;
22425;SDS011;11380;50.822;15.790;2022-07-19T07:57:28;58.70;;;52.83;;
22425;SDS011;11380;50.822;15.790;2022-07-19T08:02:45;57.35;;;51.85;;
22425;SDS011;11380;50.822;15.790;2022-07-19T08:07:47;57.97;;;52.43;;
22425;SDS011;11380;50.822;15.790;2022-07-19T08:12:55;58.13;;;52.43;;
22425;SDS011;11380;50.822;15.790;2022-07-19T08:18:03;57.93;;;52.37;;
22425;SDS011;11380;50.822;15.790;2022-07-19T08:23:10;58.50;;;52.88;;
22425;SDS011;11380;50.822;15.790;2022-07-19T08:28:16;58.90;;;53.00;;
22425;SDS011;11380;50.822;15.790;2022-07-19T08:33:21;59.00;;;53.10;;
22425;SDS011;11380;50.822;15.790;2022-07-19T08:38:27;59.37;;;53.57;;
22425;SDS011;11380;50.822;15.790;2022-07-19T08:43:32;59.80;;;54.00;;
22425;SDS011;11380;50.822;15.790;2022-07-19T08:48:37;59.20;;;53.37;;
22425;SDS011;11380;50.822;15.790;2022-07-19T08:53:44;59.27;;;53.33;;
22425;SDS011;11380;50.822;15.790;2022-07-19T08:58:50;58.90;;;53.27;;
22425;SDS011;11380;50.822;15.790;2022-07-19T09:09:24;59.40;;;53.40;;
22425;SDS011;11380;50.822;15.790;2022-07-19T09:14:27;60.77;;;54.77;;
22425;SDS011;11380;50.822;15.790;2022-07-19T09:19:34;59.43;;;53.53;;
22425;SDS011;11380;50.822;15.790;2022-07-19T09:24:43;59.47;;;53.70;;
22425;SDS011;11380;50.822;15.790;2022-07-19T09:29:53;61.00;;;54.95;;
22425;SDS011;11380;50.822;15.790;2022-07-19T09:35:01;60.77;;;54.70;;
22425;SDS011;11380;50.822;15.790;2022-07-19T09:40:07;60.45;;;54.60;;
22425;SDS011;11380;50.822;15.790;2022-07-19T09:45:14;61.07;;;55.00;;
22425;SDS011;11380;50.822;15.790;2022-07-19T09:50:24;60.90;;;54.90;;
22425;SDS011;11380;50.822;15.790;2022-07-19T09:55:31;60.77;;;54.87;;
22425;SDS011;11380;50.822;15.790;2022-07-19T10:00:37;60.67;;;54.67;;
22425;SDS011;11380;50.822;15.790;2022-07-19T10:05:43;60.43;;;54.50;;
22425;SDS011;11380;50.822;15.790;2022-07-19T10:10:49;61.03;;;55.00;;
22425;SDS011;11380;50.822;15.790;2022-07-19T10:15:55;60.57;;;54.67;;
22425;SDS011;11380;50.822;15.790;2022-07-19T10:21:04;60.33;;;54.50;;
22425;SDS011;11380;50.822;15.790;2022-07-19T10:26:11;60.27;;;54.27;;
22425;SDS011;11380;50.822;15.790;2022-07-19T10:31:28;60.60;;;54.73;;
22425;SDS011;11380;50.822;15.790;2022-07-19T10:36:43;59.47;;;53.73;;
22425;SDS011;11380;50.822;15.790;2022-07-19T10:52:42;60.27;;;54.27;;
22425;SDS011;11380;50.822;15.790;2022-07-19T11:13:49;60.12;;;54.18;;
22425;SDS011;11380;50.822;15.790;2022-07-19T11:19:05;60.27;;;54.33;;
22425;SDS011;11380;50.822;15.790;2022-07-19T11:24:12;60.33;;;54.37;;
22425;SDS011;11380;50.822;15.790;2022-07-19T11:29:19;60.40;;;54.50;;
22425;SDS011;11380;50.822;15.790;2022-07-19T11:34:24;60.43;;;54.37;;
22425;SDS011;11380;50.822;15.790;2022-07-19T11:39:47;60.83;;;54.93;;
22425;SDS011;11380;50.822;15.790;2022-07-19T11:44:55;59.93;;;54.13;;
22425;SDS011;11380;50.822;15.790;2022-07-19T11:50:03;61.25;;;55.15;;
22425;SDS011;11380;50.822;15.790;2022-07-19T11:55:09;60.93;;;54.97;;
22425;SDS011;11380;50.822;15.790;2022-07-19T12:00:15;60.93;;;54.93;;
22425;SDS011;11380;50.822;15.790;2022-07-19T12:05:21;61.03;;;54.97;;
22425;SDS011;11380;50.822;15.790;2022-07-19T12:10:35;61.28;;;55.28;;
22425;SDS011;11380;50.822;15.790;2022-07-19T12:15:50;61.40;;;55.37;;
22425;SDS011;11380;50.822;15.790;2022-07-19T12:26:32;61.30;;;55.20;;
22425;SDS011;11380;50.822;15.790;2022-07-19T12:31:43;61.70;;;55.30;;
22425;SDS011;11380;50.822;15.790;2022-07-19T12:36:50;60.17;;;54.27;;
22425;SDS011;11380;50.822;15.790;2022-07-19T12:41:56;61.08;;;54.88;;
22425;SDS011;11380;50.822;15.790;2022-07-19T12:47:06;60.60;;;54.70;;
22425;SDS011;11380;50.822;15.790;2022-07-19T12:52:12;61.57;;;55.40;;
22425;SDS011;11380;50.822;15.790;2022-07-19T12:57:18;60.75;;;54.67;;
22425;SDS011;11380;50.822;15.790;2022-07-19T13:02:23;60.58;;;54.53;;
22425;SDS011;11380;50.822;15.790;2022-07-19T13:07:28;60.47;;;54.47;;
22425;SDS011;11380;50.822;15.790;2022-07-19T13:12:35;60.70;;;54.50;;
22425;SDS011;11380;50.822;15.790;2022-07-19T13:17:41;60.50;;;54.40;;
22425;SDS011;11380;50.822;15.790;2022-07-19T13:22:47;61.20;;;55.20;;
22425;SDS011;11380;50.822;15.790;2022-07-19T13:27:52;60.33;;;54.23;;
22425;SDS011;11380;50.822;15.790;2022-07-19T13:32:57;62.20;;;54.50;;
22425;SDS011;11380;50.822;15.790;2022-07-19T13:38:04;60.73;;;54.90;;
22425;SDS011;11380;50.822;15.790;2022-07-19T13:43:10;62.17;;;55.67;;
22425;SDS011;11380;50.822;15.790;2022-07-19T13:48:16;61.28;;;55.10;;
22425;SDS011;11380;50.822;15.790;2022-07-19T13:53:21;60.73;;;54.53;;
22425;SDS011;11380;50.822;15.790;2022-07-19T13:58:26;61.10;;;55.10;;
22425;SDS011;11380;50.822;15.790;2022-07-19T14:03:32;62.37;;;56.17;;
22425;SDS011;11380;50.822;15.790;2022-07-19T14:08:39;65.67;;;59.20;;
22425;SDS011;11380;50.822;15.790;2022-07-19T14:13:45;60.88;;;54.88;;
22425;SDS011;11380;50.822;15.790;2022-07-19T14:18:51;61.53;;;55.37;;
22425;SDS011;11380;50.822;15.790;2022-07-19T14:23:58;60.30;;;54.40;;
22425;SDS011;11380;50.822;15.790;2022-07-19T14:29:03;61.57;;;55.57;;
22425;SDS011;11380;50.822;15.790;2022-07-19T14:34:08;60.73;;;54.70;;
22425;SDS011;11380;50.822;15.790;2022-07-19T14:39:15;60.80;;;54.90;;
22425;SDS011;11380;50.822;15.790;2022-07-19T14:44:20;60.73;;;54.83;;
22425;SDS011;11380;50.822;15.790;2022-07-19T14:49:28;61.00;;;55.03;;
22425;SDS011;11380;50.822;15.790;2022-07-19T14:54:34;60.93;;;54.63;;
22425;SDS011;11380;50.822;15.790;2022-07-19T14:59:39;62.20;;;56.10;;
22425;SDS011;11380;50.822;15.790;2022-07-19T15:04:46;61.17;;;55.07;;
22425;SDS011;11380;50.822;15.790;2022-07-19T15:09:51;60.90;;;54.80;;
22425;SDS011;11380;50.822;15.790;2022-07-19T15:14:58;61.20;;;55.23;;
22425;SDS011;11380;50.822;15.790;2022-07-19T15:20:04;61.53;;;55.23;;
22425;SDS011;11380;50.822;15.790;2022-07-19T15:25:11;61.48;;;55.50;;
22425;SDS011;11380;50.822;15.790;2022-07-19T15:30:17;60.63;;;54.63;;
22425;SDS011;11380;50.822;15.790;2022-07-19T15:35:23;61.18;;;54.73;;
22425;SDS011;11380;50.822;15.790;2022-07-19T15:40:28;61.17;;;54.97;;
22425;SDS011;11380;50.822;15.790;2022-07-19T15:45:34;61.17;;;55.27;;
22425;SDS011;11380;50.822;15.790;2022-07-19T15:50:39;62.38;;;56.18;;
22425;SDS011;11380;50.822;15.790;2022-07-19T15:55:44;60.87;;;54.77;;
22425;SDS011;11380;50.822;15.790;2022-07-19T16:00:50;60.90;;;55.00;;
22425;SDS011;11380;50.822;15.790;2022-07-19T16:05:57;62.33;;;56.20;;
22425;SDS011;11380;50.822;15.790;2022-07-19T16:11:02;62.53;;;56.03;;
22425;SDS011;11380;50.822;15.790;2022-07-19T16:16:08;61.80;;;55.67;;
22425;SDS011;11380;50.822;15.790;2022-07-19T16:21:14;61.57;;;55.43;;
22425;SDS011;11380;50.822;15.790;2022-07-19T16:26:19;61.60;;;55.40;;
22425;SDS011;11380;50.822;15.790;2022-07-19T16:31:25;61.85;;;55.73;;
22425;SDS011;11380;50.822;15.790;2022-07-19T16:36:31;68.07;;;57.93;;
22425;SDS011;11380;50.822;15.790;2022-07-19T16:41:38;61.53;;;55.43;;
22425;SDS011;11380;50.822;15.790;2022-07-19T16:46:43;61.20;;;55.00;;
22425;SDS011;11380;50.822;15.790;2022-07-19T16:51:48;61.23;;;54.93;;
22425;SDS011;11380;50.822;15.790;2022-07-19T16:56:56;60.97;;;54.67;;
22425;SDS011;11380;50.822;15.790;2022-07-19T17:02:01;61.77;;;55.10;;
22425;SDS011;11380;50.822;15.790;2022-07-19T17:07:08;104.63;;;63.00;;
22425;SDS011;11380;50.822;15.790;2022-07-19T17:12:13;270.50;;;90.95;;
22425;SDS011;11380;50.822;15.790;2022-07-19T17:17:18;63.35;;;56.50;;
22425;SDS011;11380;50.822;15.790;2022-07-19T17:22:24;61.40;;;55.10;;
22425;SDS011;11380;50.822;15.790;2022-07-19T17:27:30;60.00;;;54.10;;
22425;SDS011;11380;50.822;15.790;2022-07-19T17:32:37;60.23;;;54.40;;
22425;SDS011;11380;50.822;15.790;2022-07-19T17:37:42;60.53;;;54.53;;
22425;SDS011;11380;50.822;15.790;2022-07-19T17:42:48;60.90;;;54.80;;
22425;SDS011;11380;50.822;15.790;2022-07-19T17:47:53;60.17;;;54.30;;
22425;SDS011;11380;50.822;15.790;2022-07-19T17:52:58;59.93;;;53.93;;
22425;SDS011;11380;50.822;15.790;2022-07-19T17:58:04;60.63;;;54.30;;
22425;SDS011;11380;50.822;15.790;2022-07-19T18:03:09;59.33;;;53.42;;
22425;SDS011;11380;50.822;15.790;2022-07-19T18:08:15;60.53;;;54.47;;
22425;SDS011;11380;50.822;15.790;2022-07-19T18:13:20;60.20;;;53.63;;
22425;SDS011;11380;50.822;15.790;2022-07-19T18:18:28;59.30;;;53.50;;
22425;SDS011;11380;50.822;15.790;2022-07-19T18:23:34;60.50;;;54.20;;
22425;SDS011;11380;50.822;15.790;2022-07-19T18:28:39;59.67;;;53.77;;
22425;SDS011;11380;50.822;15.790;2022-07-19T18:33:44;60.70;;;53.37;;
22425;SDS011;11380;50.822;15.790;2022-07-19T18:38:50;60.67;;;54.63;;
22425;SDS011;11380;50.822;15.790;2022-07-19T18:43:55;60.15;;;53.98;;
22425;SDS011;11380;50.822;15.790;2022-07-19T18:49:01;58.95;;;53.15;;
22425;SDS011;11380;50.822;15.790;2022-07-19T18:54:07;60.20;;;54.13;;
22425;SDS011;11380;50.822;15.790;2022-07-19T18:59:13;59.97;;;53.90;;
22425;SDS011;11380;50.822;15.790;2022-07-19T19:04:19;58.92;;;53.13;;
22425;SDS011;11380;50.822;15.790;2022-07-19T19:09:25;59.58;;;53.50;;
22425;SDS011;11380;50.822;15.790;2022-07-19T19:14:30;59.20;;;53.30;;
22425;SDS011;11380;50.822;15.790;2022-07-19T19:19:36;59.50;;;53.53;;
22425;SDS011;11380;50.822;15.790;2022-07-19T19:24:41;59.38;;;53.58;;
22425;SDS011;11380;50.822;15.790;2022-07-19T19:29:47;58.55;;;52.50;;
22425;SDS011;11380;50.822;15.790;2022-07-19T19:34:53;58.60;;;52.93;;
22425;SDS011;11380;50.822;15.790;2022-07-19T19:40:00;58.30;;;52.77;;
22425;SDS011;11380;50.822;15.790;2022-07-19T19:45:06;59.03;;;53.23;;
22425;SDS011;11380;50.822;15.790;2022-07-19T19:50:14;58.93;;;53.10;;
22425;SDS011;11380;50.822;15.790;2022-07-19T19:55:20;57.75;;;52.15;;
22425;SDS011;11380;50.822;15.790;2022-07-19T20:05:30;58.40;;;52.67;;
22425;SDS011;11380;50.822;15.790;2022-07-19T20:10:35;58.97;;;53.20;;
22425;SDS011;11380;50.822;15.790;2022-07-19T20:15:40;59.03;;;53.33;;
22425;SDS011;11380;50.822;15.790;2022-07-19T20:20:48;59.30;;;53.23;;
22425;SDS011;11380;50.822;15.790;2022-07-19T20:25:57;58.45;;;52.88;;
22425;SDS011;11380;50.822;15.790;2022-07-19T20:31:03;59.30;;;53.30;;
22425;SDS011;11380;50.822;15.790;2022-07-19T20:36:08;58.73;;;52.85;;
22425;SDS011;11380;50.822;15.790;2022-07-19T20:41:15;57.80;;;52.37;;
22425;SDS011;11380;50.822;15.790;2022-07-19T20:46:20;57.93;;;52.23;;
22425;SDS011;11380;50.822;15.790;2022-07-19T20:51:28;57.33;;;52.00;;
22425;SDS011;11380;50.822;15.790;2022-07-19T20:56:34;57.83;;;52.30;;
22425;SDS011;11380;50.822;15.790;2022-07-19T21:01:41;58.85;;;53.15;;
22425;SDS011;11380;50.822;15.790;2022-07-19T21:06:47;59.38;;;53.05;;
22425;SDS011;11380;50.822;15.790;2022-07-19T21:11:52;60.87;;;54.73;;
22425;SDS011;11380;50.822;15.790;2022-07-19T21:16:59;60.27;;;54.37;;
22425;SDS011;11380;50.822;15.790;2022-07-19T21:22:04;58.85;;;53.33;;
22425;SDS011;11380;50.822;15.790;2022-07-19T21:27:09;57.37;;;51.93;;
22425;SDS011;11380;50.822;15.790;2022-07-19T21:32:15;56.65;;;51.25;;
22425;SDS011;11380;50.822;15.790;2022-07-19T21:37:21;57.15;;;51.75;;
22425;SDS011;11380;50.822;15.790;2022-07-19T21:42:27;56.68;;;51.30;;
22425;SDS011;11380;50.822;15.790;2022-07-19T21:47:33;57.45;;;52.05;;
22425;SDS011;11380;50.822;15.790;2022-07-19T21:52:41;57.33;;;51.93;;
22425;SDS011;11380;50.822;15.790;2022-07-19T21:57:46;57.20;;;51.80;;
22425;SDS011;11380;50.822;15.790;2022-07-19T22:02:52;56.85;;;51.60;;
22425;SDS011;11380;50.822;15.790;2022-07-19T22:07:58;57.17;;;51.85;;
22425;SDS011;11380;50.822;15.790;2022-07-19T22:13:03;57.13;;;51.73;;
22425;SDS011;11380;50.822;15.790;2022-07-19T22:18:09;56.98;;;51.77;;
22425;SDS011;11380;50.822;15.790;2022-07-19T22:23:15;57.87;;;52.27;;
22425;SDS011;11380;50.822;15.790;2022-07-19T22:28:20;56.18;;;51.08;;
22425;SDS011;11380;50.822;15.790;2022-07-19T22:33:26;56.80;;;51.58;;
22425;SDS011;11380;50.822;15.790;2022-07-19T22:43:36;56.05;;;50.85;;
22425;SDS011;11380;50.822;15.790;2022-07-19T22:48:42;58.02;;;52.05;;
22425;SDS011;11380;50.822;15.790;2022-07-19T22:53:48;57.40;;;52.10;;
22425;SDS011;11380;50.822;15.790;2022-07-19T22:58:53;56.17;;;51.07;;
22425;SDS011;11380;50.822;15.790;2022-07-19T23:03:59;57.10;;;51.67;;
22425;SDS011;11380;50.822;15.790;2022-07-19T23:09:06;56.37;;;51.13;;
22425;SDS011;11380;50.822;15.790;2022-07-19T23:14:12;55.60;;;50.60;;
22425;SDS011;11380;50.822;15.790;2022-07-19T23:19:18;55.20;;;50.10;;
22425;SDS011;11380;50.822;15.790;2022-07-19T23:24:24;55.40;;;50.40;;
22425;SDS011;11380;50.822;15.790;2022-07-19T23:29:29;55.53;;;50.43;;
22425;SDS011;11380;50.822;15.790;2022-07-19T23:34:35;55.12;;;50.03;;
22425;SDS011;11380;50.822;15.790;2022-07-19T23:39:41;55.27;;;49.87;;
22425;SDS011;11380;50.822;15.790;2022-07-19T23:44:47;55.87;;;50.80;;
22425;SDS011;11380;50.822;15.790;2022-07-19T23:49:52;55.23;;;50.23;;
22425;SDS011;11380;50.822;15.790;2022-07-19T23:54:57;54.93;;;50.10;;
